sensor_id;sensor_type;location;lat;lon;timestamp;temperature;humidity
46416;DHT22;32620;51.704;7.822;2023-08-31T00:00:43;11.00;99.90
46416;DHT22;32620;51.704;7.822;2023-08-31T00:03:09;11.00;99.90
46416;DHT22;32620;51.704;7.822;2023-08-31T00:05:40;11.00;99.90
46416;DHT22;32620;51.704;7.822;2023-08-31T00:08:07;11.00;99.90
46416;DHT22;32620;51.704;7.822;2023-08-31T00:10:33;11.00;99.90
46416;DHT22;32620;51.704;7.822;2023-08-31T00:13:00;11.10;99.90
46416;DHT22;32620;51.704;7.822;2023-08-31T00:15:26;11.10;99.90
46416;DHT22;32620;51.704;7.822;2023-08-31T00:17:54;11.20;99.90
46416;DHT22;32620;51.704;7.822;2023-08-31T00:20:19;11.20;99.90
46416;DHT22;32620;51.704;7.822;2023-08-31T00:22:45;11.30;99.90
46416;DHT22;32620;51.704;7.822;2023-08-31T00:25:10;11.40;99.90
46416;DHT22;32620;51.704;7.822;2023-08-31T00:27:36;11.60;99.90
46416;DHT22;32620;51.704;7.822;2023-08-31T00:30:04;11.70;99.90
46416;DHT22;32620;51.704;7.822;2023-08-31T00:32:32;11.80;99.90
46416;DHT22;32620;51.704;7.822;2023-08-31T00:34:59;11.80;99.90
46416;DHT22;32620;51.704;7.822;2023-08-31T00:37:25;11.90;99.90
46416;DHT22;32620;51.704;7.822;2023-08-31T00:39:50;11.90;99.90
46416;DHT22;32620;51.704;7.822;2023-08-31T00:42:18;12.00;99.90
46416;DHT22;32620;51.704;7.822;2023-08-31T00:44:44;12.10;99.90
46416;DHT22;32620;51.704;7.822;2023-08-31T00:47:12;12.10;99.90
46416;DHT22;32620;51.704;7.822;2023-08-31T00:49:39;12.10;99.90
46416;DHT22;32620;51.704;7.822;2023-08-31T00:52:06;12.20;99.90
46416;DHT22;32620;51.704;7.822;2023-08-31T00:54:33;12.20;99.90
46416;DHT22;32620;51.704;7.822;2023-08-31T00:56:59;12.20;99.90
46416;DHT22;32620;51.704;7.822;2023-08-31T00:59:25;12.20;99.90
46416;DHT22;32620;51.704;7.822;2023-08-31T01:04:57;12.20;99.90
46416;DHT22;32620;51.704;7.822;2023-08-31T01:07:53;12.30;99.90
46416;DHT22;32620;51.704;7.822;2023-08-31T01:13:14;12.30;99.90
46416;DHT22;32620;51.704;7.822;2023-08-31T01:15:45;12.30;99.90
46416;DHT22;32620;51.704;7.822;2023-08-31T01:18:16;12.30;99.90
46416;DHT22;32620;51.704;7.822;2023-08-31T01:20:46;12.30;99.90
46416;DHT22;32620;51.704;7.822;2023-08-31T01:23:19;12.40;99.90
46416;DHT22;32620;51.704;7.822;2023-08-31T01:25:45;12.40;99.90
46416;DHT22;32620;51.704;7.822;2023-08-31T01:28:13;12.40;99.90
46416;DHT22;32620;51.704;7.822;2023-08-31T01:30:39;12.40;99.90
46416;DHT22;32620;51.704;7.822;2023-08-31T01:33:04;12.30;99.90
46416;DHT22;32620;51.704;7.822;2023-08-31T01:35:39;12.30;99.90
46416;DHT22;32620;51.704;7.822;2023-08-31T01:38:07;12.30;99.90
46416;DHT22;32620;51.704;7.822;2023-08-31T01:40:43;12.30;99.90
46416;DHT22;32620;51.704;7.822;2023-08-31T01:43:11;12.30;99.90
46416;DHT22;32620;51.704;7.822;2023-08-31T01:45:37;12.30;99.90
46416;DHT22;32620;51.704;7.822;2023-08-31T01:48:04;12.30;99.90
46416;DHT22;32620;51.704;7.822;2023-08-31T01:50:29;12.30;99.90
46416;DHT22;32620;51.704;7.822;2023-08-31T01:52:55;12.30;99.90
46416;DHT22;32620;51.704;7.822;2023-08-31T01:55:23;12.30;99.90
46416;DHT22;32620;51.704;7.822;2023-08-31T01:57:49;12.30;99.90
46416;DHT22;32620;51.704;7.822;2023-08-31T02:00:16;12.30;99.90
46416;DHT22;32620;51.704;7.822;2023-08-31T02:02:42;12.30;99.90
46416;DHT22;32620;51.704;7.822;2023-08-31T02:05:08;12.20;99.90
46416;DHT22;32620;51.704;7.822;2023-08-31T02:07:34;12.30;99.90
46416;DHT22;32620;51.704;7.822;2023-08-31T02:10:00;12.30;99.90
46416;DHT22;32620;51.704;7.822;2023-08-31T02:12:25;12.30;99.90
46416;DHT22;32620;51.704;7.822;2023-08-31T02:14:51;12.20;99.90
46416;DHT22;32620;51.704;7.822;2023-08-31T02:17:16;12.20;99.90
46416;DHT22;32620;51.704;7.822;2023-08-31T02:19:42;12.20;99.90
46416;DHT22;32620;51.704;7.822;2023-08-31T02:22:08;12.20;99.90
46416;DHT22;32620;51.704;7.822;2023-08-31T02:24:34;12.10;99.90
46416;DHT22;32620;51.704;7.822;2023-08-31T02:27:00;12.20;99.90
46416;DHT22;32620;51.704;7.822;2023-08-31T02:29:25;12.20;99.90
46416;DHT22;32620;51.704;7.822;2023-08-31T02:31:51;12.20;99.90
46416;DHT22;32620;51.704;7.822;2023-08-31T02:34:16;12.20;99.90
46416;DHT22;32620;51.704;7.822;2023-08-31T02:36:42;12.20;99.90
46416;DHT22;32620;51.704;7.822;2023-08-31T02:39:07;12.20;99.90
46416;DHT22;32620;51.704;7.822;2023-08-31T02:41:33;12.20;99.90
46416;DHT22;32620;51.704;7.822;2023-08-31T02:43:59;12.20;99.90
46416;DHT22;32620;51.704;7.822;2023-08-31T02:46:24;12.20;99.90
46416;DHT22;32620;51.704;7.822;2023-08-31T02:48:50;12.20;99.90
46416;DHT22;32620;51.704;7.822;2023-08-31T02:51:16;12.20;99.90
46416;DHT22;32620;51.704;7.822;2023-08-31T02:53:41;12.20;99.90
46416;DHT22;32620;51.704;7.822;2023-08-31T02:56:07;12.10;99.90
46416;DHT22;32620;51.704;7.822;2023-08-31T02:58:33;12.10;99.90
46416;DHT22;32620;51.704;7.822;2023-08-31T03:01:08;12.10;99.90
46416;DHT22;32620;51.704;7.822;2023-08-31T03:03:37;11.90;99.90
46416;DHT22;32620;51.704;7.822;2023-08-31T03:06:02;11.90;99.90
46416;DHT22;32620;51.704;7.822;2023-08-31T03:08:28;11.80;99.90
46416;DHT22;32620;51.704;7.822;2023-08-31T03:10:56;11.80;99.90
46416;DHT22;32620;51.704;7.822;2023-08-31T03:13:22;11.80;99.90
46416;DHT22;32620;51.704;7.822;2023-08-31T03:15:47;11.70;99.90
46416;DHT22;32620;51.704;7.822;2023-08-31T03:18:13;11.70;99.90
46416;DHT22;32620;51.704;7.822;2023-08-31T03:20:39;11.70;99.90
46416;DHT22;32620;51.704;7.822;2023-08-31T03:23:04;11.60;99.90
46416;DHT22;32620;51.704;7.822;2023-08-31T03:25:30;11.60;99.90
46416;DHT22;32620;51.704;7.822;2023-08-31T03:27:56;11.50;99.90
46416;DHT22;32620;51.704;7.822;2023-08-31T03:30:21;11.50;99.90
46416;DHT22;32620;51.704;7.822;2023-08-31T03:32:47;11.50;99.90
46416;DHT22;32620;51.704;7.822;2023-08-31T03:35:14;11.50;99.90
46416;DHT22;32620;51.704;7.822;2023-08-31T03:37:39;11.50;99.90
46416;DHT22;32620;51.704;7.822;2023-08-31T03:40:05;11.50;99.90
46416;DHT22;32620;51.704;7.822;2023-08-31T03:42:33;11.40;99.90
46416;DHT22;32620;51.704;7.822;2023-08-31T03:44:59;11.40;99.90
46416;DHT22;32620;51.704;7.822;2023-08-31T03:47:24;11.40;99.90
46416;DHT22;32620;51.704;7.822;2023-08-31T03:49:50;11.40;99.90
46416;DHT22;32620;51.704;7.822;2023-08-31T03:52:16;11.30;99.90
46416;DHT22;32620;51.704;7.822;2023-08-31T03:54:41;11.30;99.90
46416;DHT22;32620;51.704;7.822;2023-08-31T03:57:07;11.30;99.90
46416;DHT22;32620;51.704;7.822;2023-08-31T03:59:32;11.30;99.90
46416;DHT22;32620;51.704;7.822;2023-08-31T04:01:58;11.20;99.90
46416;DHT22;32620;51.704;7.822;2023-08-31T04:04:24;11.20;99.90
46416;DHT22;32620;51.704;7.822;2023-08-31T04:06:50;11.20;99.90
46416;DHT22;32620;51.704;7.822;2023-08-31T04:09:16;11.20;99.90
46416;DHT22;32620;51.704;7.822;2023-08-31T04:11:42;11.20;99.90
46416;DHT22;32620;51.704;7.822;2023-08-31T04:14:08;11.20;99.90
46416;DHT22;32620;51.704;7.822;2023-08-31T04:16:33;11.20;99.90
46416;DHT22;32620;51.704;7.822;2023-08-31T04:18:59;11.10;99.90
46416;DHT22;32620;51.704;7.822;2023-08-31T04:21:25;11.20;99.90
46416;DHT22;32620;51.704;7.822;2023-08-31T04:23:50;11.20;99.90
46416;DHT22;32620;51.704;7.822;2023-08-31T04:26:16;11.20;99.90
46416;DHT22;32620;51.704;7.822;2023-08-31T04:28:43;11.20;99.90
46416;DHT22;32620;51.704;7.822;2023-08-31T04:31:09;11.20;99.90
46416;DHT22;32620;51.704;7.822;2023-08-31T04:33:36;11.30;99.90
46416;DHT22;32620;51.704;7.822;2023-08-31T04:36:02;11.20;99.90
46416;DHT22;32620;51.704;7.822;2023-08-31T04:38:31;11.20;99.90
46416;DHT22;32620;51.704;7.822;2023-08-31T04:40:59;11.20;99.90
46416;DHT22;32620;51.704;7.822;2023-08-31T04:43:25;11.30;99.90
46416;DHT22;32620;51.704;7.822;2023-08-31T04:45:52;11.30;99.90
46416;DHT22;32620;51.704;7.822;2023-08-31T04:48:17;11.20;99.90
46416;DHT22;32620;51.704;7.822;2023-08-31T04:50:43;11.30;99.90
46416;DHT22;32620;51.704;7.822;2023-08-31T04:53:08;11.30;99.90
46416;DHT22;32620;51.704;7.822;2023-08-31T04:55:34;11.30;99.90
46416;DHT22;32620;51.704;7.822;2023-08-31T04:58:00;11.30;99.90
46416;DHT22;32620;51.704;7.822;2023-08-31T05:00:26;11.40;99.90
46416;DHT22;32620;51.704;7.822;2023-08-31T05:02:52;11.30;99.90
46416;DHT22;32620;51.704;7.822;2023-08-31T05:05:17;11.40;99.90
46416;DHT22;32620;51.704;7.822;2023-08-31T05:07:44;11.40;99.90
46416;DHT22;32620;51.704;7.822;2023-08-31T05:10:10;11.40;99.90
46416;DHT22;32620;51.704;7.822;2023-08-31T05:12:36;11.50;99.90
46416;DHT22;32620;51.704;7.822;2023-08-31T05:15:01;11.50;99.90
46416;DHT22;32620;51.704;7.822;2023-08-31T05:17:28;11.60;99.90
46416;DHT22;32620;51.704;7.822;2023-08-31T05:19:53;11.60;99.90
46416;DHT22;32620;51.704;7.822;2023-08-31T05:22:19;11.70;99.90
46416;DHT22;32620;51.704;7.822;2023-08-31T05:24:45;11.70;99.90
46416;DHT22;32620;51.704;7.822;2023-08-31T05:27:10;11.70;99.90
46416;DHT22;32620;51.704;7.822;2023-08-31T05:29:36;11.80;99.90
46416;DHT22;32620;51.704;7.822;2023-08-31T05:32:02;11.80;99.90
46416;DHT22;32620;51.704;7.822;2023-08-31T05:34:27;11.80;99.90
46416;DHT22;32620;51.704;7.822;2023-08-31T05:36:53;11.80;99.90
46416;DHT22;32620;51.704;7.822;2023-08-31T05:39:19;11.80;99.90
46416;DHT22;32620;51.704;7.822;2023-08-31T05:41:45;11.80;99.90
46416;DHT22;32620;51.704;7.822;2023-08-31T05:44:10;11.90;99.90
46416;DHT22;32620;51.704;7.822;2023-08-31T05:46:36;11.90;99.90
46416;DHT22;32620;51.704;7.822;2023-08-31T05:49:03;11.90;99.90
46416;DHT22;32620;51.704;7.822;2023-08-31T05:51:29;11.90;99.90
46416;DHT22;32620;51.704;7.822;2023-08-31T05:53:55;11.90;99.90
46416;DHT22;32620;51.704;7.822;2023-08-31T05:56:20;11.90;99.90
46416;DHT22;32620;51.704;7.822;2023-08-31T05:58:46;11.90;99.90
46416;DHT22;32620;51.704;7.822;2023-08-31T06:01:12;11.90;99.90
46416;DHT22;32620;51.704;7.822;2023-08-31T06:03:38;11.90;99.90
46416;DHT22;32620;51.704;7.822;2023-08-31T06:06:04;12.00;99.90
46416;DHT22;32620;51.704;7.822;2023-08-31T06:08:29;12.00;99.90
46416;DHT22;32620;51.704;7.822;2023-08-31T06:10:56;12.30;99.90
46416;DHT22;32620;51.704;7.822;2023-08-31T06:13:22;12.90;99.90
46416;DHT22;32620;51.704;7.822;2023-08-31T06:15:47;13.30;99.90
46416;DHT22;32620;51.704;7.822;2023-08-31T06:18:13;13.40;99.90
46416;DHT22;32620;51.704;7.822;2023-08-31T06:20:39;13.60;99.90
46416;DHT22;32620;51.704;7.822;2023-08-31T06:23:05;13.70;99.90
46416;DHT22;32620;51.704;7.822;2023-08-31T06:25:30;13.70;99.90
46416;DHT22;32620;51.704;7.822;2023-08-31T06:27:57;13.80;99.90
46416;DHT22;32620;51.704;7.822;2023-08-31T06:30:23;13.90;99.90
46416;DHT22;32620;51.704;7.822;2023-08-31T06:32:48;13.50;99.90
46416;DHT22;32620;51.704;7.822;2023-08-31T06:35:15;13.00;99.90
46416;DHT22;32620;51.704;7.822;2023-08-31T06:37:41;12.60;99.90
46416;DHT22;32620;51.704;7.822;2023-08-31T06:40:08;12.80;99.90
46416;DHT22;32620;51.704;7.822;2023-08-31T06:42:37;13.50;99.90
46416;DHT22;32620;51.704;7.822;2023-08-31T06:45:04;14.20;99.90
46416;DHT22;32620;51.704;7.822;2023-08-31T06:47:31;14.20;99.90
46416;DHT22;32620;51.704;7.822;2023-08-31T06:49:57;14.30;99.90
46416;DHT22;32620;51.704;7.822;2023-08-31T06:52:24;14.40;99.90
46416;DHT22;32620;51.704;7.822;2023-08-31T06:54:49;14.10;99.90
46416;DHT22;32620;51.704;7.822;2023-08-31T06:57:15;14.10;99.90
46416;DHT22;32620;51.704;7.822;2023-08-31T06:59:41;14.10;99.90
46416;DHT22;32620;51.704;7.822;2023-08-31T07:02:06;14.00;99.90
46416;DHT22;32620;51.704;7.822;2023-08-31T07:04:32;13.80;99.90
46416;DHT22;32620;51.704;7.822;2023-08-31T07:06:58;13.60;99.90
46416;DHT22;32620;51.704;7.822;2023-08-31T07:09:23;13.60;99.90
46416;DHT22;32620;51.704;7.822;2023-08-31T07:11:49;13.50;99.90
46416;DHT22;32620;51.704;7.822;2023-08-31T07:14:14;13.40;99.90
46416;DHT22;32620;51.704;7.822;2023-08-31T07:16:40;13.30;99.90
46416;DHT22;32620;51.704;7.822;2023-08-31T07:19:06;13.10;99.90
46416;DHT22;32620;51.704;7.822;2023-08-31T07:21:31;13.10;99.90
46416;DHT22;32620;51.704;7.822;2023-08-31T07:23:57;13.10;99.90
46416;DHT22;32620;51.704;7.822;2023-08-31T07:26:22;13.20;99.90
46416;DHT22;32620;51.704;7.822;2023-08-31T07:28:48;13.20;99.90
46416;DHT22;32620;51.704;7.822;2023-08-31T07:31:14;13.40;99.90
46416;DHT22;32620;51.704;7.822;2023-08-31T07:33:40;13.60;99.90
46416;DHT22;32620;51.704;7.822;2023-08-31T07:36:06;14.60;99.90
46416;DHT22;32620;51.704;7.822;2023-08-31T07:38:32;15.80;99.90
46416;DHT22;32620;51.704;7.822;2023-08-31T07:40:59;16.50;99.90
46416;DHT22;32620;51.704;7.822;2023-08-31T07:43:26;17.10;47.30
46416;DHT22;32620;51.704;7.822;2023-08-31T07:45:52;16.80;29.10
46416;DHT22;32620;51.704;7.822;2023-08-31T07:48:18;16.80;30.20
46416;DHT22;32620;51.704;7.822;2023-08-31T07:50:45;17.50;1.00
46416;DHT22;32620;51.704;7.822;2023-08-31T07:53:11;17.10;1.00
46416;DHT22;32620;51.704;7.822;2023-08-31T07:55:37;17.50;19.20
46416;DHT22;32620;51.704;7.822;2023-08-31T07:58:03;17.50;1.00
46416;DHT22;32620;51.704;7.822;2023-08-31T08:00:28;17.10;1.00
46416;DHT22;32620;51.704;7.822;2023-08-31T08:02:54;16.30;34.70
46416;DHT22;32620;51.704;7.822;2023-08-31T08:05:19;15.80;45.60
46416;DHT22;32620;51.704;7.822;2023-08-31T08:07:45;15.80;93.40
46416;DHT22;32620;51.704;7.822;2023-08-31T08:10:11;15.80;93.30
46416;DHT22;32620;51.704;7.822;2023-08-31T08:12:39;15.80;73.50
46416;DHT22;32620;51.704;7.822;2023-08-31T08:15:06;15.90;92.20
46416;DHT22;32620;51.704;7.822;2023-08-31T08:17:35;15.80;93.70
46416;DHT22;32620;51.704;7.822;2023-08-31T08:20:01;15.60;97.80
46416;DHT22;32620;51.704;7.822;2023-08-31T08:22:28;15.40;90.60
46416;DHT22;32620;51.704;7.822;2023-08-31T08:24:53;15.20;97.70
46416;DHT22;32620;51.704;7.822;2023-08-31T08:27:19;14.90;99.90
46416;DHT22;32620;51.704;7.822;2023-08-31T08:29:46;14.80;99.90
46416;DHT22;32620;51.704;7.822;2023-08-31T08:32:12;14.80;99.90
46416;DHT22;32620;51.704;7.822;2023-08-31T08:34:38;14.90;99.90
46416;DHT22;32620;51.704;7.822;2023-08-31T08:37:03;14.90;99.90
46416;DHT22;32620;51.704;7.822;2023-08-31T08:39:30;14.80;99.90
46416;DHT22;32620;51.704;7.822;2023-08-31T08:41:58;15.00;99.90
46416;DHT22;32620;51.704;7.822;2023-08-31T08:44:25;15.00;97.80
46416;DHT22;32620;51.704;7.822;2023-08-31T08:46:52;15.10;99.90
46416;DHT22;32620;51.704;7.822;2023-08-31T08:49:18;15.30;99.90
46416;DHT22;32620;51.704;7.822;2023-08-31T08:51:45;15.50;86.70
46416;DHT22;32620;51.704;7.822;2023-08-31T08:54:13;15.60;56.40
46416;DHT22;32620;51.704;7.822;2023-08-31T08:56:39;15.80;69.40
46416;DHT22;32620;51.704;7.822;2023-08-31T08:59:05;15.80;91.60
46416;DHT22;32620;51.704;7.822;2023-08-31T09:01:32;15.90;52.20
46416;DHT22;32620;51.704;7.822;2023-08-31T09:03:58;15.80;43.10
46416;DHT22;32620;51.704;7.822;2023-08-31T09:06:24;16.00;69.10
46416;DHT22;32620;51.704;7.822;2023-08-31T09:08:57;15.80;78.30
46416;DHT22;32620;51.704;7.822;2023-08-31T09:11:23;15.80;59.50
46416;DHT22;32620;51.704;7.822;2023-08-31T09:13:50;16.00;52.00
46416;DHT22;32620;51.704;7.822;2023-08-31T09:16:31;16.30;27.80
46416;DHT22;32620;51.704;7.822;2023-08-31T09:18:57;16.10;26.20
46416;DHT22;32620;51.704;7.822;2023-08-31T09:21:35;16.10;44.70
46416;DHT22;32620;51.704;7.822;2023-08-31T09:24:00;16.50;38.10
46416;DHT22;32620;51.704;7.822;2023-08-31T09:26:26;16.40;14.30
46416;DHT22;32620;51.704;7.822;2023-08-31T09:28:52;17.10;1.00
46416;DHT22;32620;51.704;7.822;2023-08-31T09:31:18;17.60;1.00
46416;DHT22;32620;51.704;7.822;2023-08-31T09:33:51;17.40;1.00
46416;DHT22;32620;51.704;7.822;2023-08-31T09:36:18;17.00;1.00
46416;DHT22;32620;51.704;7.822;2023-08-31T09:38:44;17.00;1.00
46416;DHT22;32620;51.704;7.822;2023-08-31T09:41:10;16.80;1.00
46416;DHT22;32620;51.704;7.822;2023-08-31T09:43:36;16.80;1.00
46416;DHT22;32620;51.704;7.822;2023-08-31T09:46:04;16.80;1.00
46416;DHT22;32620;51.704;7.822;2023-08-31T09:48:30;16.90;1.00
46416;DHT22;32620;51.704;7.822;2023-08-31T09:50:57;16.80;1.00
46416;DHT22;32620;51.704;7.822;2023-08-31T09:53:24;16.70;9.50
46416;DHT22;32620;51.704;7.822;2023-08-31T09:55:51;16.70;1.00
46416;DHT22;32620;51.704;7.822;2023-08-31T09:58:19;16.70;1.00
46416;DHT22;32620;51.704;7.822;2023-08-31T10:00:46;17.10;1.00
46416;DHT22;32620;51.704;7.822;2023-08-31T10:03:12;18.20;1.00
46416;DHT22;32620;51.704;7.822;2023-08-31T10:05:42;18.50;1.00
46416;DHT22;32620;51.704;7.822;2023-08-31T10:08:08;18.40;1.00
46416;DHT22;32620;51.704;7.822;2023-08-31T10:10:34;18.80;1.00
46416;DHT22;32620;51.704;7.822;2023-08-31T10:13:01;19.60;99.90
46416;DHT22;32620;51.704;7.822;2023-08-31T10:15:32;20.10;99.90
46416;DHT22;32620;51.704;7.822;2023-08-31T10:18:00;19.80;99.90
46416;DHT22;32620;51.704;7.822;2023-08-31T10:20:26;19.40;99.90
46416;DHT22;32620;51.704;7.822;2023-08-31T10:22:57;18.60;99.90
46416;DHT22;32620;51.704;7.822;2023-08-31T10:25:23;18.80;1.00
46416;DHT22;32620;51.704;7.822;2023-08-31T10:27:49;18.70;99.90
46416;DHT22;32620;51.704;7.822;2023-08-31T10:30:26;17.90;99.90
46416;DHT22;32620;51.704;7.822;2023-08-31T10:35:52;17.80;1.00
46416;DHT22;32620;51.704;7.822;2023-08-31T10:43:50;17.70;1.00
46416;DHT22;32620;51.704;7.822;2023-08-31T10:46:41;16.60;1.00
46416;DHT22;32620;51.704;7.822;2023-08-31T10:51:53;16.70;1.00
46416;DHT22;32620;51.704;7.822;2023-08-31T10:54:31;17.30;99.90
46416;DHT22;32620;51.704;7.822;2023-08-31T10:59:53;17.50;99.90
46416;DHT22;32620;51.704;7.822;2023-08-31T11:02:36;18.50;99.90
46416;DHT22;32620;51.704;7.822;2023-08-31T11:07:41;18.30;99.90
46416;DHT22;32620;51.704;7.822;2023-08-31T11:10:11;18.40;99.90
46416;DHT22;32620;51.704;7.822;2023-08-31T11:12:38;18.10;99.90
46416;DHT22;32620;51.704;7.822;2023-08-31T11:15:04;17.70;1.00
46416;DHT22;32620;51.704;7.822;2023-08-31T11:17:31;17.70;1.00
46416;DHT22;32620;51.704;7.822;2023-08-31T11:19:58;17.70;1.00
46416;DHT22;32620;51.704;7.822;2023-08-31T11:22:24;18.10;1.00
46416;DHT22;32620;51.704;7.822;2023-08-31T11:24:50;18.20;99.90
46416;DHT22;32620;51.704;7.822;2023-08-31T11:27:19;18.70;99.90
46416;DHT22;32620;51.704;7.822;2023-08-31T11:29:46;19.20;99.90
46416;DHT22;32620;51.704;7.822;2023-08-31T11:32:12;18.70;99.90
46416;DHT22;32620;51.704;7.822;2023-08-31T11:34:45;18.20;99.90
46416;DHT22;32620;51.704;7.822;2023-08-31T11:37:12;18.10;99.90
46416;DHT22;32620;51.704;7.822;2023-08-31T11:39:42;17.80;99.90
46416;DHT22;32620;51.704;7.822;2023-08-31T11:42:08;17.60;99.90
46416;DHT22;32620;51.704;7.822;2023-08-31T11:44:34;17.70;99.90
46416;DHT22;32620;51.704;7.822;2023-08-31T11:47:00;17.60;99.90
46416;DHT22;32620;51.704;7.822;2023-08-31T11:49:27;18.10;99.90
46416;DHT22;32620;51.704;7.822;2023-08-31T11:51:54;18.90;1.00
46416;DHT22;32620;51.704;7.822;2023-08-31T11:54:20;19.00;1.00
46416;DHT22;32620;51.704;7.822;2023-08-31T11:56:46;18.90;1.00
46416;DHT22;32620;51.704;7.822;2023-08-31T11:59:18;19.20;1.00
46416;DHT22;32620;51.704;7.822;2023-08-31T12:01:46;19.60;99.90
46416;DHT22;32620;51.704;7.822;2023-08-31T12:04:14;19.40;1.00
46416;DHT22;32620;51.704;7.822;2023-08-31T12:06:41;19.80;99.90
46416;DHT22;32620;51.704;7.822;2023-08-31T12:09:08;19.60;99.90
46416;DHT22;32620;51.704;7.822;2023-08-31T12:11:34;19.50;99.90
46416;DHT22;32620;51.704;7.822;2023-08-31T12:14:00;19.20;1.00
46416;DHT22;32620;51.704;7.822;2023-08-31T12:16:35;18.60;99.90
46416;DHT22;32620;51.704;7.822;2023-08-31T12:19:03;18.80;99.90
46416;DHT22;32620;51.704;7.822;2023-08-31T12:21:31;19.10;2.50
46416;DHT22;32620;51.704;7.822;2023-08-31T12:23:59;19.20;99.90
46416;DHT22;32620;51.704;7.822;2023-08-31T12:26:26;19.10;20.20
46416;DHT22;32620;51.704;7.822;2023-08-31T12:28:52;18.90;99.90
46416;DHT22;32620;51.704;7.822;2023-08-31T12:31:17;19.20;1.00
46416;DHT22;32620;51.704;7.822;2023-08-31T12:33:43;19.10;99.90
46416;DHT22;32620;51.704;7.822;2023-08-31T12:36:08;19.70;1.00
46416;DHT22;32620;51.704;7.822;2023-08-31T12:38:34;20.10;1.00
46416;DHT22;32620;51.704;7.822;2023-08-31T12:41:00;20.50;1.00
46416;DHT22;32620;51.704;7.822;2023-08-31T12:43:28;20.40;45.00
46416;DHT22;32620;51.704;7.822;2023-08-31T12:45:55;20.10;99.90
46416;DHT22;32620;51.704;7.822;2023-08-31T12:48:20;20.40;19.10
46416;DHT22;32620;51.704;7.822;2023-08-31T12:50:46;20.00;99.90
46416;DHT22;32620;51.704;7.822;2023-08-31T12:53:13;20.20;99.90
46416;DHT22;32620;51.704;7.822;2023-08-31T12:55:39;20.40;99.90
46416;DHT22;32620;51.704;7.822;2023-08-31T12:58:05;20.30;99.90
46416;DHT22;32620;51.704;7.822;2023-08-31T13:00:30;20.00;99.90
46416;DHT22;32620;51.704;7.822;2023-08-31T13:02:56;19.70;99.90
46416;DHT22;32620;51.704;7.822;2023-08-31T13:05:22;19.80;99.90
46416;DHT22;32620;51.704;7.822;2023-08-31T13:07:47;19.90;99.90
46416;DHT22;32620;51.704;7.822;2023-08-31T13:10:13;19.70;1.00
46416;DHT22;32620;51.704;7.822;2023-08-31T13:12:39;19.40;99.90
46416;DHT22;32620;51.704;7.822;2023-08-31T13:15:05;19.40;1.00
46416;DHT22;32620;51.704;7.822;2023-08-31T13:17:33;19.60;99.90
46416;DHT22;32620;51.704;7.822;2023-08-31T13:19:59;19.70;99.90
46416;DHT22;32620;51.704;7.822;2023-08-31T13:22:25;19.80;99.90
46416;DHT22;32620;51.704;7.822;2023-08-31T13:24:51;20.00;99.90
46416;DHT22;32620;51.704;7.822;2023-08-31T13:27:17;20.00;99.90
46416;DHT22;32620;51.704;7.822;2023-08-31T13:29:43;20.00;1.00
46416;DHT22;32620;51.704;7.822;2023-08-31T13:32:09;19.70;39.40
46416;DHT22;32620;51.704;7.822;2023-08-31T13:34:35;19.90;1.00
46416;DHT22;32620;51.704;7.822;2023-08-31T13:37:02;20.20;46.30
46416;DHT22;32620;51.704;7.822;2023-08-31T13:39:28;20.60;99.90
46416;DHT22;32620;51.704;7.822;2023-08-31T13:41:54;20.40;99.90
46416;DHT22;32620;51.704;7.822;2023-08-31T13:44:20;20.90;99.90
46416;DHT22;32620;51.704;7.822;2023-08-31T13:46:46;21.00;99.90
46416;DHT22;32620;51.704;7.822;2023-08-31T13:49:12;20.60;99.90
46416;DHT22;32620;51.704;7.822;2023-08-31T13:51:38;20.30;99.90
46416;DHT22;32620;51.704;7.822;2023-08-31T13:54:05;19.90;1.00
46416;DHT22;32620;51.704;7.822;2023-08-31T13:56:31;19.80;99.90
46416;DHT22;32620;51.704;7.822;2023-08-31T13:58:56;19.50;1.00
46416;DHT22;32620;51.704;7.822;2023-08-31T14:01:22;19.40;1.00
46416;DHT22;32620;51.704;7.822;2023-08-31T14:03:48;19.40;99.90
46416;DHT22;32620;51.704;7.822;2023-08-31T14:06:13;19.50;99.90
46416;DHT22;32620;51.704;7.822;2023-08-31T14:08:40;19.40;99.90
46416;DHT22;32620;51.704;7.822;2023-08-31T14:11:06;19.10;99.90
46416;DHT22;32620;51.704;7.822;2023-08-31T14:13:32;18.90;1.00
46416;DHT22;32620;51.704;7.822;2023-08-31T14:15:58;19.00;99.90
46416;DHT22;32620;51.704;7.822;2023-08-31T14:18:24;18.80;99.90
46416;DHT22;32620;51.704;7.822;2023-08-31T14:20:51;18.40;99.90
46416;DHT22;32620;51.704;7.822;2023-08-31T14:23:16;18.40;99.90
46416;DHT22;32620;51.704;7.822;2023-08-31T14:25:42;18.10;1.00
46416;DHT22;32620;51.704;7.822;2023-08-31T14:28:08;18.00;1.00
46416;DHT22;32620;51.704;7.822;2023-08-31T14:30:36;17.90;1.00
46416;DHT22;32620;51.704;7.822;2023-08-31T14:33:02;18.00;1.00
46416;DHT22;32620;51.704;7.822;2023-08-31T14:35:28;18.20;1.00
46416;DHT22;32620;51.704;7.822;2023-08-31T14:37:53;18.30;1.00
46416;DHT22;32620;51.704;7.822;2023-08-31T14:40:19;18.30;1.00
46416;DHT22;32620;51.704;7.822;2023-08-31T14:42:45;18.30;1.00
46416;DHT22;32620;51.704;7.822;2023-08-31T14:45:10;18.30;1.00
46416;DHT22;32620;51.704;7.822;2023-08-31T14:47:36;18.20;1.00
46416;DHT22;32620;51.704;7.822;2023-08-31T14:50:02;18.30;1.00
46416;DHT22;32620;51.704;7.822;2023-08-31T14:52:30;18.40;1.00
46416;DHT22;32620;51.704;7.822;2023-08-31T14:54:55;18.40;1.00
46416;DHT22;32620;51.704;7.822;2023-08-31T14:57:21;18.40;1.00
46416;DHT22;32620;51.704;7.822;2023-08-31T14:59:47;18.40;1.00
46416;DHT22;32620;51.704;7.822;2023-08-31T15:02:12;18.50;1.00
46416;DHT22;32620;51.704;7.822;2023-08-31T15:04:39;18.50;1.00
46416;DHT22;32620;51.704;7.822;2023-08-31T15:07:05;18.50;1.00
46416;DHT22;32620;51.704;7.822;2023-08-31T15:09:31;18.40;1.00
46416;DHT22;32620;51.704;7.822;2023-08-31T15:11:58;18.30;1.00
46416;DHT22;32620;51.704;7.822;2023-08-31T15:14:23;18.30;99.90
46416;DHT22;32620;51.704;7.822;2023-08-31T15:16:49;18.20;99.90
46416;DHT22;32620;51.704;7.822;2023-08-31T15:19:15;18.10;99.90
46416;DHT22;32620;51.704;7.822;2023-08-31T15:21:40;18.00;99.90
46416;DHT22;32620;51.704;7.822;2023-08-31T15:24:06;17.90;99.90
46416;DHT22;32620;51.704;7.822;2023-08-31T15:26:32;17.80;99.90
46416;DHT22;32620;51.704;7.822;2023-08-31T15:28:58;17.70;99.90
46416;DHT22;32620;51.704;7.822;2023-08-31T15:31:23;17.40;99.90
46416;DHT22;32620;51.704;7.822;2023-08-31T15:33:49;17.20;99.90
46416;DHT22;32620;51.704;7.822;2023-08-31T15:36:15;17.10;1.00
46416;DHT22;32620;51.704;7.822;2023-08-31T15:38:42;17.00;1.00
46416;DHT22;32620;51.704;7.822;2023-08-31T15:41:08;16.80;1.00
46416;DHT22;32620;51.704;7.822;2023-08-31T15:43:35;16.60;1.00
46416;DHT22;32620;51.704;7.822;2023-08-31T15:46:02;16.40;1.00
46416;DHT22;32620;51.704;7.822;2023-08-31T15:48:28;16.20;1.00
46416;DHT22;32620;51.704;7.822;2023-08-31T15:50:55;16.10;1.00
46416;DHT22;32620;51.704;7.822;2023-08-31T15:53:21;15.90;1.00